Time;durP1;ratioP1;P1;durP2;ratioP2;P2;SDS_P1;SDS_P2;PMS_P1;PMS_P2;Temp;Humidity;BMP_temperature;BMP_pressure;BME280_temperature;BME280_humidity;BME280_pressure;Samples;Min_cycle;Max_cycle;Signal;HPM_P1;HPM_P2
2023/02/27 00:00:03;;;;;;;;;;;;;;;21.16;34.86;102849.94;7254604;19;152776;-54
2023/02/27 00:02:32;;;;;;;;;;;;;;;21.16;34.34;102843.47;7255092;19;154367;-54
2023/02/27 00:04:59;;;;;;;;;;;;;;;21.16;34.08;102844.31;7251757;19;156059;-53
2023/02/27 00:07:27;;;;;;;;;;;;;;;21.17;34.40;102840.38;7258688;19;154273;-54
2023/02/27 00:09:54;;;;;;;;;;;;;;;21.19;33.73;102843.78;7264612;19;154120;-53
2023/02/27 00:12:21;;;;;;;;;;;;;;;21.17;33.42;102845.13;7256480;19;154507;-54
2023/02/27 00:14:50;;;;;;;;;;;;;;;21.15;33.46;102842.63;7256639;19;154170;-54
2023/02/27 00:17:16;;;;;;;;;;;;;;;21.12;33.29;102836.66;7256768;19;154647;-54
2023/02/27 00:19:45;;;;;;;;;;;;;;;21.08;33.31;102843.88;7260444;19;151947;-54
2023/02/27 00:22:12;;;;;;;;;;;;;;;21.14;34.26;102842.88;7258392;19;154038;-53
2023/02/27 00:24:39;;;;;;;;;;;;;;;21.16;33.81;102849.94;7260781;19;153481;-54
2023/02/27 00:27:06;;;;;;;;;;;;;;;21.19;34.37;102846.59;7259565;19;153968;-54
2023/02/27 00:29:32;;;;;;;;;;;;;;;21.20;34.47;102851.09;7256987;19;152777;-54
2023/02/27 00:32:01;;;;;;;;;;;;;;;21.25;34.07;102850.31;7266009;19;153315;-54
2023/02/27 00:34:29;;;;;;;;;;;;;;;21.26;34.39;102860.41;7259244;19;154402;-54
2023/02/27 00:36:56;;;;;;;;;;;;;;;21.30;33.94;102853.16;7257994;19;153973;-54
2023/02/27 00:39:25;;;;;;;;;;;;;;;21.26;34.24;102858.44;7258527;19;152448;-54
2023/02/27 00:41:54;;;;;;;;;;;;;;;21.27;34.28;102856.47;7259747;19;154121;-54
2023/02/27 00:44:21;;;;;;;;;;;;;;;21.26;34.18;102860.41;7256285;19;152919;-54
2023/02/27 00:46:47;;;;;;;;;;;;;;;21.27;34.43;102845.22;7257287;19;152637;-54
2023/02/27 00:49:14;;;;;;;;;;;;;;;21.23;34.26;102852.50;7258038;19;154065;-54
2023/02/27 00:51:41;;;;;;;;;;;;;;;21.20;34.49;102851.09;7266003;19;152608;-54
2023/02/27 00:54:08;;;;;;;;;;;;;;;21.18;34.76;102850.50;7259141;19;153775;-53
2023/02/27 00:56:35;;;;;;;;;;;;;;;21.14;34.99;102846.53;7258595;19;153980;-54
2023/02/27 00:59:02;;;;;;;;;;;;;;;21.12;34.79;102845.91;7255661;19;155111;-54
2023/02/27 01:01:29;;;;;;;;;;;;;;;21.09;35.02;102856.84;7256912;19;153862;-54
2023/02/27 01:03:56;;;;;;;;;;;;;;;21.05;35.20;102853.72;7257326;19;153401;-53
2023/02/27 01:06:22;;;;;;;;;;;;;;;21.06;35.27;102854.56;7259414;19;154005;-54
2023/02/27 01:08:49;;;;;;;;;;;;;;;21.03;35.30;102867.16;7259004;19;153175;-54
2023/02/27 01:11:16;;;;;;;;;;;;;;;21.01;35.33;102844.13;7258270;19;154202;-53
2023/02/27 01:13:44;;;;;;;;;;;;;;;20.96;35.32;102854.47;7263026;19;153503;-53
2023/02/27 01:16:11;;;;;;;;;;;;;;;20.95;35.29;102849.94;7256370;19;152719;-53
2023/02/27 01:18:39;;;;;;;;;;;;;;;20.89;35.53;102853.84;7257628;19;153296;-54
2023/02/27 01:21:06;;;;;;;;;;;;;;;20.85;35.51;102851.53;7258907;19;153261;-54
2023/02/27 01:23:33;;;;;;;;;;;;;;;20.85;35.67;102851.53;7255664;19;153308;-53
2023/02/27 01:26:02;;;;;;;;;;;;;;;20.83;35.56;102844.50;7256716;19;153320;-53
2023/02/27 01:28:28;;;;;;;;;;;;;;;20.80;35.99;102854.28;7253270;19;153741;-54
2023/02/27 01:30:55;;;;;;;;;;;;;;;20.78;35.79;102850.06;7257417;19;153959;-55
2023/02/27 01:33:23;;;;;;;;;;;;;;;20.76;35.96;102846.66;7258173;19;154873;-54
2023/02/27 01:35:50;;;;;;;;;;;;;;;20.71;35.81;102846.63;7264609;19;153379;-53
2023/02/27 01:38:16;;;;;;;;;;;;;;;20.67;36.34;102846.28;7256555;19;154720;-54
2023/02/27 01:40:46;;;;;;;;;;;;;;;20.64;36.08;102848.75;7258279;19;154760;-54
2023/02/27 01:43:14;;;;;;;;;;;;;;;20.60;36.07;102845.63;7253083;19;154985;-54
2023/02/27 01:45:42;;;;;;;;;;;;;;;20.56;36.57;102841.66;7255583;19;154347;-54
2023/02/27 01:48:12;;;;;;;;;;;;;;;20.51;36.46;102846.34;7257199;19;154575;-56
2023/02/27 01:50:42;;;;;;;;;;;;;;;20.49;36.43;102845.78;7256669;19;153320;-54
2023/02/27 01:53:11;;;;;;;;;;;;;;;20.47;36.29;102840.44;7257007;19;152965;-54
2023/02/27 01:55:39;;;;;;;;;;;;;;;20.45;36.34;102830.56;7257692;19;151949;-54
2023/02/27 01:58:07;;;;;;;;;;;;;;;20.42;36.76;102841.22;7261893;19;154119;-53
2023/02/27 02:00:34;;;;;;;;;;;;;;;20.37;36.54;102835.53;7254235;19;153996;-56
2023/02/27 02:03:04;;;;;;;;;;;;;;;20.35;36.48;102831.31;7254337;19;154262;-54
2023/02/27 02:05:30;;;;;;;;;;;;;;;20.32;36.76;102826.19;7254011;19;153435;-54
2023/02/27 02:07:57;;;;;;;;;;;;;;;20.29;36.55;102827.53;7255300;19;154650;-54
2023/02/27 02:10:25;;;;;;;;;;;;;;;20.28;36.95;102817.41;7255876;19;154784;-53
2023/02/27 02:12:54;;;;;;;;;;;;;;;20.24;37.03;102815.38;7255769;19;154059;-54
2023/02/27 02:15:24;;;;;;;;;;;;;;;20.21;36.72;102818.72;7254477;19;154341;-54
2023/02/27 02:17:53;;;;;;;;;;;;;;;20.17;36.79;102811.94;7255775;19;153814;-54
2023/02/27 02:20:23;;;;;;;;;;;;;;;20.15;37.15;102812.19;7264085;19;154557;-54
2023/02/27 02:22:54;;;;;;;;;;;;;;;20.12;36.85;102811.88;7254646;19;154199;-54
2023/02/27 02:25:22;;;;;;;;;;;;;;;20.08;36.92;102813.50;7255399;19;153537;-53
2023/02/27 02:27:52;;;;;;;;;;;;;;;20.06;37.36;102821.31;7255839;19;153718;-54
2023/02/27 02:30:32;;;;;;;;;;;;;;;20.03;37.28;102816.25;7250907;19;153388;-54
2023/02/27 02:33:03;;;;;;;;;;;;;;;20.02;37.39;102817.34;7247714;19;153855;-54
2023/02/27 02:35:32;;;;;;;;;;;;;;;19.98;37.45;102812.25;7251251;19;154236;-54
2023/02/27 02:38:02;;;;;;;;;;;;;;;19.95;37.13;102818.38;7249284;19;153386;-54
2023/02/27 02:40:35;;;;;;;;;;;;;;;19.94;37.55;102813.84;7250447;19;153859;-54
2023/02/27 02:43:05;;;;;;;;;;;;;;;19.92;37.48;102807.66;7259252;19;152673;-54
2023/02/27 02:45:33;;;;;;;;;;;;;;;19.89;37.15;102804.53;7250403;19;153092;-54
2023/02/27 02:48:00;;;;;;;;;;;;;;;19.86;37.65;102802.22;7253471;19;152490;-54
2023/02/27 02:50:33;;;;;;;;;;;;;;;19.84;37.49;102808.13;7251916;19;153350;-54
2023/02/27 02:53:01;;;;;;;;;;;;;;;19.81;37.29;102793.75;7253768;19;154978;-54
2023/02/27 02:55:33;;;;;;;;;;;;;;;19.80;37.36;102790.13;7254245;19;153734;-54
2023/02/27 02:58:05;;;;;;;;;;;;;;;19.77;37.46;102796.22;7254588;19;155299;-54
2023/02/27 03:00:37;;;;;;;;;;;;;;;19.74;37.67;102787.47;7251913;19;154281;-54
2023/02/27 03:03:09;;;;;;;;;;;;;;;19.72;37.42;102792.47;7256611;19;153967;-54
2023/02/27 03:05:40;;;;;;;;;;;;;;;19.70;37.77;102800.31;7255724;19;154877;-54
2023/02/27 03:08:11;;;;;;;;;;;;;;;19.67;37.75;102790.44;7253600;19;154190;-54
2023/02/27 03:10:42;;;;;;;;;;;;;;;19.65;37.79;102801.09;7253399;19;156326;-54
2023/02/27 03:13:13;;;;;;;;;;;;;;;19.62;37.47;102789.56;7252787;19;154391;-54
2023/02/27 03:15:42;;;;;;;;;;;;;;;19.60;37.64;102792.59;7253066;19;155200;-54
2023/02/27 03:18:17;;;;;;;;;;;;;;;19.58;37.92;102794.81;7252939;19;154122;-54
2023/02/27 03:20:47;;;;;;;;;;;;;;;19.55;37.75;102800.94;7254303;19;152112;-53
2023/02/27 03:23:17;;;;;;;;;;;;;;;19.53;37.75;102795.56;7252965;19;153380;-53
2023/02/27 03:25:45;;;;;;;;;;;;;;;19.52;37.67;102787.44;7263564;19;152807;-54
2023/02/27 03:28:15;;;;;;;;;;;;;;;19.49;38.10;102796.34;7256800;19;155332;-54
2023/02/27 03:30:45;;;;;;;;;;;;;;;19.47;37.76;102798.56;7259879;19;153938;-54
2023/02/27 03:33:15;;;;;;;;;;;;;;;19.46;38.12;102794.06;7261029;19;154283;-54
2023/02/27 03:35:42;;;;;;;;;;;;;;;19.44;38.05;102791.50;7261420;19;151968;-54
2023/02/27 03:38:12;;;;;;;;;;;;;;;19.44;38.15;102793.50;7258094;19;153938;-54
2023/02/27 03:40:46;;;;;;;;;;;;;;;19.41;38.09;102793.94;7260707;19;154184;-54
2023/02/27 03:43:19;;;;;;;;;;;;;;;19.39;38.27;102799.81;7259433;19;154100;-54
2023/02/27 03:45:53;;;;;;;;;;;;;;;19.36;38.42;102810.69;7260679;19;153234;-54
2023/02/27 03:48:20;;;;;;;;;;;;;;;19.35;38.42;102803.41;7267610;19;154411;-53
2023/02/27 03:50:47;;;;;;;;;;;;;;;19.32;38.07;102798.28;7257981;19;152555;-55
2023/02/27 03:53:21;;;;;;;;;;;;;;;19.30;38.50;102795.75;7258904;19;154266;-54
2023/02/27 03:55:50;;;;;;;;;;;;;;;19.28;38.45;102797.09;7259732;19;153350;-54
2023/02/27 03:58:16;;;;;;;;;;;;;;;19.25;38.39;102795.66;7256664;19;153432;-54
2023/02/27 04:00:43;;;;;;;;;;;;;;;19.24;38.61;102799.56;7260426;19;155056;-53
2023/02/27 04:03:10;;;;;;;;;;;;;;;19.22;38.34;102801.75;7259401;19;152610;-54
2023/02/27 04:05:39;;;;;;;;;;;;;;;19.19;38.53;102807.88;7258650;19;154190;-54
2023/02/27 04:08:09;;;;;;;;;;;;;;;19.19;38.57;102807.03;7255702;19;152260;-54
2023/02/27 04:10:39;;;;;;;;;;;;;;;19.16;38.68;102808.41;7266522;19;153365;-54
2023/02/27 04:13:09;;;;;;;;;;;;;;;19.14;38.40;102815.34;7260271;19;154000;-54
2023/02/27 04:15:38;;;;;;;;;;;;;;;19.14;38.73;102818.16;7258717;19;154598;-53
2023/02/27 04:18:08;;;;;;;;;;;;;;;19.12;38.46;102820.38;7258922;19;153580;-54
2023/02/27 04:20:38;;;;;;;;;;;;;;;19.08;38.48;102820.84;7261045;19;153386;-54
2023/02/27 04:23:12;;;;;;;;;;;;;;;19.08;38.67;102822.81;7257631;19;154780;-54
2023/02/27 04:25:42;;;;;;;;;;;;;;;19.06;38.64;102823.06;7258212;19;153511;-54
2023/02/27 04:28:12;;;;;;;;;;;;;;;19.05;38.79;102826.97;7256525;19;153703;-54
2023/02/27 04:30:42;;;;;;;;;;;;;;;19.02;38.86;102821.03;7258662;19;155248;-54
2023/02/27 04:33:12;;;;;;;;;;;;;;;19.00;38.69;102823.22;7265920;19;154691;-54
2023/02/27 04:35:40;;;;;;;;;;;;;;;18.97;38.85;102824.59;7258308;19;154208;-54
2023/02/27 04:38:07;;;;;;;;;;;;;;;18.96;38.72;102816.44;7255240;19;153334;-53
2023/02/27 04:40:38;;;;;;;;;;;;;;;18.94;38.63;102822.28;7258053;19;153536;-53
2023/02/27 04:43:06;;;;;;;;;;;;;;;18.93;38.56;102829.00;7259035;19;155898;-54
2023/02/27 04:45:40;;;;;;;;;;;;;;;18.91;38.91;102817.19;7255357;19;153618;-53
2023/02/27 04:48:10;;;;;;;;;;;;;;;18.90;38.84;102811.81;7257080;19;155140;-54
2023/02/27 04:50:40;;;;;;;;;;;;;;;18.88;38.98;102814.91;7257004;19;154474;-54
2023/02/27 04:53:10;;;;;;;;;;;;;;;18.85;39.25;102815.38;7257633;19;153971;-54
2023/02/27 04:55:41;;;;;;;;;;;;;;;18.83;39.00;102825.16;7267054;19;153495;-54
2023/02/27 04:58:11;;;;;;;;;;;;;;;18.83;39.36;102820.41;7257143;19;152344;-54
2023/02/27 05:00:40;;;;;;;;;;;;;;;18.83;39.33;102814.81;7257422;19;154102;-54
2023/02/27 05:03:11;;;;;;;;;;;;;;;18.82;39.33;102820.66;7258274;19;154189;-54
2023/02/27 05:05:38;;;;;;;;;;;;;;;18.79;39.44;102824.81;7257208;19;154030;-54
2023/02/27 05:08:09;;;;;;;;;;;;;;;18.79;39.55;102821.16;7255663;19;153306;-55
2023/02/27 05:10:42;;;;;;;;;;;;;;;18.77;39.68;102826.16;7259790;19;154858;-54
2023/02/27 05:13:13;;;;;;;;;;;;;;;18.73;39.64;102820.19;7255877;19;155126;-54
2023/02/27 05:15:44;;;;;;;;;;;;;;;18.72;39.39;102826.91;7265819;19;153588;-54
2023/02/27 05:18:13;;;;;;;;;;;;;;;18.71;39.78;102813.16;7256277;19;152080;-54
2023/02/27 05:20:43;;;;;;;;;;;;;;;18.71;39.80;102816.81;7257700;19;154390;-54
2023/02/27 05:23:13;;;;;;;;;;;;;;;18.76;39.83;102811.28;7258384;19;153092;-54
2023/02/27 05:25:43;;;;;;;;;;;;;;;18.85;39.76;102818.19;7257068;19;154180;-54
2023/02/27 05:28:16;;;;;;;;;;;;;;;18.92;39.77;102813.28;7255020;19;152706;-55
2023/02/27 05:30:45;;;;;;;;;;;;;;;18.98;39.78;102817.91;7257723;19;153497;-54
2023/02/27 05:33:17;;;;;;;;;;;;;;;19.06;39.73;102811.00;7254276;19;155111;-53
2023/02/27 05:35:46;;;;;;;;;;;;;;;19.13;39.56;102811.69;7257917;19;154209;-54
2023/02/27 05:38:16;;;;;;;;;;;;;;;19.21;39.55;102825.31;7262603;19;155692;-54
2023/02/27 05:40:45;;;;;;;;;;;;;;;19.26;40.08;102819.75;7256904;19;153568;-53
2023/02/27 05:43:15;;;;;;;;;;;;;;;19.32;40.02;102826.31;7255619;19;153813;-54
2023/02/27 05:45:44;;;;;;;;;;;;;;;19.39;39.82;102821.41;7255164;19;152718;-54
2023/02/27 05:48:15;;;;;;;;;;;;;;;19.42;39.70;102820.88;7254857;19;153366;-54
2023/02/27 05:50:47;;;;;;;;;;;;;;;19.46;40.08;102824.91;7256062;19;154645;-54
2023/02/27 05:53:17;;;;;;;;;;;;;;;19.50;39.85;102824.13;7253480;19;155224;-54
2023/02/27 05:55:47;;;;;;;;;;;;;;;19.57;39.87;102826.78;7269505;19;154546;-53
2023/02/27 05:58:18;;;;;;;;;;;;;;;19.62;39.84;102826.00;7256872;19;154357;-55
2023/02/27 06:00:48;;;;;;;;;;;;;;;19.67;40.16;102821.31;7263024;19;154635;-54
2023/02/27 06:03:15;;;;;;;;;;;;;;;19.72;39.82;102824.19;7255367;19;152968;-54
2023/02/27 06:05:42;;;;;;;;;;;;;;;19.77;40.10;102824.28;7256853;19;154848;-54
2023/02/27 06:08:09;;;;;;;;;;;;;;;19.83;39.72;102825.19;7253199;19;152959;-54
2023/02/27 06:10:36;;;;;;;;;;;;;;;19.88;40.06;102825.28;7257812;19;153414;-54
2023/02/27 06:13:03;;;;;;;;;;;;;;;19.93;40.26;102825.34;7254154;19;154817;-54
2023/02/27 06:15:30;;;;;;;;;;;;;;;19.98;40.01;102833.84;7253167;19;152634;-54
2023/02/27 06:17:57;;;;;;;;;;;;;;;20.04;39.66;102834.75;7256560;19;153953;-54
2023/02/27 06:20:28;;;;;;;;;;;;;;;20.10;39.44;102844.94;7250458;19;153465;-55
2023/02/27 06:22:55;;;;;;;;;;;;;;;20.14;39.36;102835.75;7263477;19;154695;-54
2023/02/27 06:25:22;;;;;;;;;;;;;;;20.19;39.61;102832.16;7254097;19;153663;-54
2023/02/27 06:27:48;;;;;;;;;;;;;;;20.23;39.56;102839.78;7255386;19;153223;-54
2023/02/27 06:30:16;;;;;;;;;;;;;;;20.28;39.41;102848.28;7252834;19;154779;-53
2023/02/27 06:32:42;;;;;;;;;;;;;;;20.33;39.08;102850.34;7253180;19;154420;-54
2023/02/27 06:35:09;;;;;;;;;;;;;;;20.37;39.20;102851.53;7255939;19;153088;-54
2023/02/27 06:37:36;;;;;;;;;;;;;;;20.42;38.95;102854.41;7255226;19;153665;-54
2023/02/27 06:40:04;;;;;;;;;;;;;;;20.47;38.98;102854.47;7254079;19;154759;-54
2023/02/27 06:42:31;;;;;;;;;;;;;;;20.52;39.14;102850.88;7256406;19;153302;-54
2023/02/27 06:44:58;;;;;;;;;;;;;;;20.55;39.11;102854.00;7259655;19;154472;-54
2023/02/27 06:47:25;;;;;;;;;;;;;;;20.60;39.10;102850.41;7253600;19;154497;-54
2023/02/27 06:49:52;;;;;;;;;;;;;;;20.65;38.66;102856.09;7254151;19;155724;-54
2023/02/27 06:52:18;;;;;;;;;;;;;;;20.68;39.04;102855.53;7254128;19;154428;-54
2023/02/27 06:54:45;;;;;;;;;;;;;;;20.72;38.56;102849.13;7256260;19;154386;-53
2023/02/27 06:57:12;;;;;;;;;;;;;;;20.76;38.85;102853.13;7254596;19;153903;-54
2023/02/27 06:59:40;;;;;;;;;;;;;;;20.80;38.78;102865.53;7249749;19;153706;-54
2023/02/27 07:02:09;;;;;;;;;;;;;;;20.85;38.55;102862.78;7254401;19;152773;-54
2023/02/27 07:04:36;;;;;;;;;;;;;;;20.89;38.26;102860.31;7255333;19;153384;-54
2023/02/27 07:07:02;;;;;;;;;;;;;;;20.92;38.39;102868.19;7260474;19;154567;-54
2023/02/27 07:09:49;;;;;;;;;;;;;;;20.99;38.46;102870.78;7253854;19;155078;-54
2023/02/27 07:12:16;;;;;;;;;;;;;;;21.01;38.37;102868.56;7253336;19;153041;-54
2023/02/27 07:14:43;;;;;;;;;;;;;;;21.05;38.45;102864.97;7250976;19;153685;-53
2023/02/27 07:17:09;;;;;;;;;;;;;;;21.10;38.27;102861.34;7253189;19;156194;-55
2023/02/27 07:19:36;;;;;;;;;;;;;;;21.13;38.54;102863.66;7253300;19;155038;-54
2023/02/27 07:22:04;;;;;;;;;;;;;;;21.19;38.61;102859.78;7253953;19;156145;-53
2023/02/27 07:24:30;;;;;;;;;;;;;;;21.01;36.14;102866.59;7254264;19;152768;-54
2023/02/27 07:26:57;;;;;;;;;;;;;;;21.09;36.05;102870.88;7260826;19;155140;-54
2023/02/27 07:29:24;;;;;;;;;;;;;;;21.13;36.24;102858.88;7249268;19;153248;-53
2023/02/27 07:31:51;;;;;;;;;;;;;;;21.19;36.21;102856.97;7252716;19;153517;-54
2023/02/27 07:34:17;;;;;;;;;;;;;;;21.21;36.45;102868.81;7255573;19;153132;-54
2023/02/27 07:36:44;;;;;;;;;;;;;;;21.26;36.37;102874.47;7254577;19;153106;-54
2023/02/27 07:39:11;;;;;;;;;;;;;;;21.29;36.36;102876.75;7252169;19;154533;-54
2023/02/27 07:41:42;;;;;;;;;;;;;;;21.29;35.98;102873.94;7253705;19;152600;-55
2023/02/27 07:44:13;;;;;;;;;;;;;;;21.30;35.93;102873.66;7251597;19;153580;-55
2023/02/27 07:46:40;;;;;;;;;;;;;;;21.33;35.66;102883.53;7251601;19;154021;-54
2023/02/27 07:49:06;;;;;;;;;;;;;;;21.35;35.45;102880.47;7258783;19;154277;-55
2023/02/27 07:51:33;;;;;;;;;;;;;;;21.35;35.03;102884.09;7250910;19;153945;-54
2023/02/27 07:54:00;;;;;;;;;;;;;;;21.36;35.20;102883.00;7253653;19;152985;-54
2023/02/27 07:56:27;;;;;;;;;;;;;;;21.38;34.90;102892.03;7248915;19;154328;-55
2023/02/27 07:58:55;;;;;;;;;;;;;;;21.39;35.17;102885.31;7248113;19;154167;-54
2023/02/27 08:01:22;;;;;;;;;;;;;;;21.39;35.04;102887.25;7250832;19;152923;-54
2023/02/27 08:03:49;;;;;;;;;;;;;;;21.36;35.14;102891.44;7253465;19;153167;-55
2023/02/27 08:06:15;;;;;;;;;;;;;;;21.35;34.56;102888.91;7251334;19;155084;-54
2023/02/27 08:08:43;;;;;;;;;;;;;;;21.36;34.78;102894.25;7251931;19;152722;-54
2023/02/27 08:11:10;;;;;;;;;;;;;;;21.34;34.67;102898.47;7259492;19;153717;-54
2023/02/27 08:13:37;;;;;;;;;;;;;;;21.30;34.35;102895.34;7258487;19;153946;-54
2023/02/27 08:16:24;;;;;;;;;;;;;;;21.29;34.56;102886.03;7259801;19;154819;-54
2023/02/27 08:18:52;;;;;;;;;;;;;;;21.30;34.38;102889.72;7256967;19;155609;-54
2023/02/27 08:21:19;;;;;;;;;;;;;;;21.27;34.56;102885.44;7260259;19;152423;-54
2023/02/27 08:23:46;;;;;;;;;;;;;;;21.27;34.52;102878.97;7258780;19;154002;-55
2023/02/27 08:26:14;;;;;;;;;;;;;;;21.24;34.19;102887.94;7262486;19;154086;-54
2023/02/27 08:28:41;;;;;;;;;;;;;;;21.20;34.30;102893.25;7255688;19;153690;-54
2023/02/27 08:31:08;;;;;;;;;;;;;;;21.21;34.15;102897.75;7260721;19;153681;-55
2023/02/27 08:33:35;;;;;;;;;;;;;;;21.19;34.16;102891.56;7264093;19;156520;-55
2023/02/27 08:36:02;;;;;;;;;;;;;;;21.20;34.34;102898.03;7259231;19;154044;-54
2023/02/27 08:38:30;;;;;;;;;;;;;;;21.17;34.15;102898.53;7256129;19;153659;-59
2023/02/27 08:40:56;;;;;;;;;;;;;;;21.13;35.12;102901.03;7259142;19;153862;-54
2023/02/27 08:43:23;;;;;;;;;;;;;;;21.14;34.42;102896.28;7255913;19;154545;-54
2023/02/27 08:45:50;;;;;;;;;;;;;;;21.18;34.67;102894.63;7258537;19;153252;-54
2023/02/27 08:48:18;;;;;;;;;;;;;;;21.14;34.31;102897.13;7257010;19;153698;-53
2023/02/27 08:50:45;;;;;;;;;;;;;;;21.12;34.34;102899.31;7257379;19;154010;-54
2023/02/27 08:53:13;;;;;;;;;;;;;;;21.08;34.27;102898.16;7255780;19;152566;-54
2023/02/27 08:55:42;;;;;;;;;;;;;;;21.07;34.04;102898.44;7267094;19;154764;-55
2023/02/27 08:58:09;;;;;;;;;;;;;;;21.05;34.21;102909.94;7257971;19;153902;-54
2023/02/27 09:00:36;;;;;;;;;;;;;;;20.99;34.12;102910.97;7258127;19;153655;-54
2023/02/27 09:03:03;;;;;;;;;;;;;;;20.98;34.15;102920.53;7259907;19;153269;-54
2023/02/27 09:05:33;;;;;;;;;;;;;;;21.00;34.20;102907.06;7258194;19;154374;-55
2023/02/27 09:08:01;;;;;;;;;;;;;;;20.98;34.39;102912.09;7257563;19;153842;-54
2023/02/27 09:10:28;;;;;;;;;;;;;;;20.99;34.25;102922.22;7259638;19;153952;-54
2023/02/27 09:12:55;;;;;;;;;;;;;;;21.00;34.30;102920.25;7256147;19;152338;-54
2023/02/27 09:15:23;;;;;;;;;;;;;;;20.99;34.36;102922.22;7262111;19;153689;-53
2023/02/27 09:17:50;;;;;;;;;;;;;;;21.00;34.34;102926.72;7256043;19;154139;-54
2023/02/27 09:20:17;;;;;;;;;;;;;;;21.03;34.66;102929.00;7259961;19;153871;-55
2023/02/27 09:22:44;;;;;;;;;;;;;;;21.04;34.32;102925.09;7257081;19;153505;-54
2023/02/27 09:25:11;;;;;;;;;;;;;;;21.05;34.32;102923.13;7256989;19;153852;-54
2023/02/27 09:27:38;;;;;;;;;;;;;;;21.08;34.29;102933.84;7258797;19;153975;-54
2023/02/27 09:30:06;;;;;;;;;;;;;;;21.09;34.41;102932.72;7255322;19;153545;-54
2023/02/27 09:32:33;;;;;;;;;;;;;;;21.12;34.36;102926.59;7260889;19;154926;-54
2023/02/27 09:35:00;;;;;;;;;;;;;;;21.15;34.34;102931.72;7256734;19;153580;-54
2023/02/27 09:37:27;;;;;;;;;;;;;;;21.13;34.42;102934.78;7263799;19;154628;-54
2023/02/27 09:39:54;;;;;;;;;;;;;;;21.15;34.67;102940.16;7257601;19;154507;-54
2023/02/27 09:42:24;;;;;;;;;;;;;;;21.14;34.51;102936.47;7258106;19;154088;-54
2023/02/27 09:44:54;;;;;;;;;;;;;;;21.16;34.28;102945.50;7254243;19;153552;-54
2023/02/27 09:47:24;;;;;;;;;;;;;;;21.17;34.10;102940.72;7258434;19;153139;-54
2023/02/27 09:49:54;;;;;;;;;;;;;;;21.19;34.38;102939.34;7257193;19;154365;-54
2023/02/27 09:52:21;;;;;;;;;;;;;;;21.19;34.47;102938.50;7257247;19;155269;-54
2023/02/27 09:54:48;;;;;;;;;;;;;;;21.19;34.31;102933.72;7259938;19;154334;-54
2023/02/27 09:57:22;;;;;;;;;;;;;;;21.18;34.22;102934.84;7257562;19;154549;-54
2023/02/27 09:59:54;;;;;;;;;;;;;;;21.17;34.47;102935.09;7262145;19;153160;-54
2023/02/27 10:02:27;;;;;;;;;;;;;;;21.17;34.49;102940.72;7257869;19;154184;-54
2023/02/27 10:04:58;;;;;;;;;;;;;;;21.16;34.44;102936.22;7257759;19;156648;-54
2023/02/27 10:07:31;;;;;;;;;;;;;;;21.16;34.23;102933.41;7255683;19;153728;-55
2023/02/27 10:10:03;;;;;;;;;;;;;;;21.16;34.36;102939.91;7255019;19;155175;-54
2023/02/27 10:12:35;;;;;;;;;;;;;;;21.15;34.04;102935.38;7254031;19;154390;-55
2023/02/27 10:15:09;;;;;;;;;;;;;;;21.16;33.92;102936.22;7253289;19;154294;-55
2023/02/27 10:17:38;;;;;;;;;;;;;;;21.15;34.17;102926.09;7255193;19;153085;-54
2023/02/27 10:20:09;;;;;;;;;;;;;;;21.16;33.78;102919.38;7257067;19;153590;-57
2023/02/27 10:22:39;;;;;;;;;;;;;;;21.14;33.85;102924.38;7263890;19;152792;-53
2023/02/27 10:25:12;;;;;;;;;;;;;;;21.11;34.00;102919.28;7256114;19;154000;-54
2023/02/27 10:27:59;;;;;;;;;;;;;;;21.09;33.93;102916.72;7256299;19;153857;-54
2023/02/27 10:30:28;;;;;;;;;;;;;;;21.06;34.11;102924.84;7251888;19;154018;-54
2023/02/27 10:33:06;;;;;;;;;;;;;;;21.03;34.48;102929.00;7255958;19;153731;-54
2023/02/27 10:35:36;;;;;;;;;;;;;;;20.97;34.51;102932.03;7253909;19;153982;-53
2023/02/27 10:38:07;;;;;;;;;;;;;;;20.92;34.59;102930.00;7258855;19;153808;-53
2023/02/27 10:40:35;;;;;;;;;;;;;;;20.93;34.44;102923.28;7254364;19;154073;-53
2023/02/27 10:43:03;;;;;;;;;;;;;;;20.86;34.55;102926.28;7256518;19;154192;-53
2023/02/27 10:45:33;;;;;;;;;;;;;;;20.86;34.36;102922.63;7260054;19;154524;-53
2023/02/27 10:48:01;;;;;;;;;;;;;;;20.82;34.48;102930.75;7253097;19;153552;-54
2023/02/27 10:50:31;;;;;;;;;;;;;;;20.78;34.41;102923.94;7251318;19;154301;-53
2023/02/27 10:53:00;;;;;;;;;;;;;;;20.74;34.33;102924.72;7254521;19;153967;-53
2023/02/27 10:55:28;;;;;;;;;;;;;;;20.74;34.82;102928.41;7255974;19;153535;-55
2023/02/27 10:57:56;;;;;;;;;;;;;;;20.76;34.72;102939.34;7255873;19;154221;-54
2023/02/27 11:00:27;;;;;;;;;;;;;;;20.76;34.94;102940.19;7250355;19;153963;-54
2023/02/27 11:02:54;;;;;;;;;;;;;;;20.79;34.90;102936.03;7253214;19;154240;-54
2023/02/27 11:05:24;;;;;;;;;;;;;;;20.84;34.92;102945.38;7255677;19;153071;-53
2023/02/27 11:07:52;;;;;;;;;;;;;;;20.90;34.58;102946.28;7263269;19;153914;-54
2023/02/27 11:10:21;;;;;;;;;;;;;;;20.93;34.65;102948.59;7253908;19;153829;-54
2023/02/27 11:12:51;;;;;;;;;;;;;;;20.98;35.02;102953.41;7254634;19;153402;-54
2023/02/27 11:15:21;;;;;;;;;;;;;;;20.97;35.01;102946.09;7253400;19;153836;-56
2023/02/27 11:17:48;;;;;;;;;;;;;;;21.02;34.59;102943.34;7253882;19;154034;-54
2023/02/27 11:20:19;;;;;;;;;;;;;;;21.05;34.57;102942.81;7252521;19;154902;-54
2023/02/27 11:23:00;;;;;;;;;;;;;;;21.09;34.89;102938.34;7253280;19;152457;-54
2023/02/27 11:25:27;;;;;;;;;;;;;;;21.10;34.98;102935.28;7253334;19;153892;-54
2023/02/27 11:28:10;;;;;;;;;;;;;;;21.15;34.71;102937.34;7262273;19;157088;-53
2023/02/27 11:30:41;;;;;;;;;;;;;;;21.16;34.66;102937.09;7252118;19;152798;-54
2023/02/27 11:33:16;;;;;;;;;;;;;;;21.19;34.83;102927.25;7253082;19;152170;-54
2023/02/27 11:35:48;;;;;;;;;;;;;;;21.20;34.34;102938.25;7253990;19;154529;-54
2023/02/27 11:38:24;;;;;;;;;;;;;;;21.22;34.36;102938.81;7253524;19;153635;-54
2023/02/27 11:40:57;;;;;;;;;;;;;;;21.24;34.75;102932.94;7252328;19;153879;-54
2023/02/27 11:43:27;;;;;;;;;;;;;;;21.26;34.40;102933.50;7250080;19;152536;-54
2023/02/27 11:45:56;;;;;;;;;;;;;;;21.24;34.23;102922.53;7254255;19;152998;-55
2023/02/27 11:48:46;;;;;;;;;;;;;;;21.27;34.27;102929.59;7259203;19;155984;-54
2023/02/27 11:51:16;;;;;;;;;;;;;;;21.26;34.29;102928.72;7265566;19;154222;-54
2023/02/27 11:53:46;;;;;;;;;;;;;;;21.26;34.18;102925.06;7260149;19;154207;-53
2023/02/27 11:56:19;;;;;;;;;;;;;;;21.27;33.84;102916.38;7260837;19;154963;-54
2023/02/27 11:59:00;;;;;;;;;;;;;;;21.28;34.27;102911.59;7255701;19;154185;-53
2023/02/27 12:01:33;;;;;;;;;;;;;;;21.27;34.15;102910.75;7252540;19;157039;-56
2023/02/27 12:04:08;;;;;;;;;;;;;;;21.28;33.80;102911.59;7259194;19;153977;-54
2023/02/27 12:06:43;;;;;;;;;;;;;;;21.23;34.36;102911.56;7257946;19;153807;-53
2023/02/27 12:09:22;;;;;;;;;;;;;;;21.26;33.94;102905.38;7260435;19;154091;-54
2023/02/27 12:11:49;;;;;;;;;;;;;;;21.26;34.25;102903.44;7259987;19;153998;-54
2023/02/27 12:14:19;;;;;;;;;;;;;;;21.23;34.47;102897.50;7261703;19;152909;-54
2023/02/27 12:16:50;;;;;;;;;;;;;;;21.21;34.55;102899.75;7259795;19;153711;-54
2023/02/27 12:19:30;;;;;;;;;;;;;;;21.13;34.29;102897.38;7258290;19;154188;-53
2023/02/27 12:22:03;;;;;;;;;;;;;;;21.16;34.41;102883.66;7256947;19;152516;-54
2023/02/27 12:24:33;;;;;;;;;;;;;;;21.16;34.32;102888.44;7260443;19;154760;-54
2023/02/27 12:27:12;;;;;;;;;;;;;;;21.18;34.16;102887.03;7260118;19;152683;-53
2023/02/27 12:29:43;;;;;;;;;;;;;;;21.21;34.04;102877.25;7254479;19;154751;-56
2023/02/27 12:32:12;;;;;;;;;;;;;;;21.26;34.14;102880.94;7258660;19;152929;-54
2023/02/27 12:34:41;;;;;;;;;;;;;;;21.34;34.14;102876.81;7258051;19;153138;-55
2023/02/27 12:37:11;;;;;;;;;;;;;;;21.40;34.07;102880.50;7264868;19;152730;-54